Time;durP1;ratioP1;P1;durP2;ratioP2;P2;SDS_P1;SDS_P2;PMS_P1;PMS_P2;Temp;Humidity;BMP_temperature;BMP_pressure;BME280_temperature;BME280_humidity;BME280_pressure;Samples;Min_cycle;Max_cycle;Signal;HPM_P1;HPM_P2
2023/02/19 00:01:17;;;;;;;1.90;1.73;;;;;;;;;;5001008;28;20455;-71
2023/02/19 00:03:46;;;;;;;2.00;1.80;;;;;;;;;;5003565;28;20443;-72
2023/02/19 00:06:11;;;;;;;2.00;1.50;;;;;;;;;;4999005;28;20824;-72
2023/02/19 00:08:37;;;;;;;1.67;1.40;;;;;;;;;;5006487;28;20444;-71
2023/02/19 00:11:12;;;;;;;1.80;1.60;;;;;;;;;;5006777;28;20184;-71
2023/02/19 00:13:39;;;;;;;2.40;1.30;;;;;;;;;;5005643;28;20426;-72
2023/02/19 00:16:14;;;;;;;1.57;1.20;;;;;;;;;;5002912;28;20428;-71
2023/02/19 00:18:39;;;;;;;2.03;1.10;;;;;;;;;;4995837;28;20462;-71
2023/02/19 00:21:05;;;;;;;1.37;1.00;;;;;;;;;;5004153;28;20432;-71
2023/02/19 00:23:30;;;;;;;1.80;1.00;;;;;;;;;;5003014;28;20933;-72
2023/02/19 00:25:56;;;;;;;1.33;0.80;;;;;;;;;;5003619;28;20641;-72
2023/02/19 00:28:21;;;;;;;1.13;1.00;;;;;;;;;;5005826;28;20197;-71
2023/02/19 00:30:47;;;;;;;1.43;0.87;;;;;;;;;;5006506;28;20168;-71
2023/02/19 00:33:12;;;;;;;1.00;0.90;;;;;;;;;;5007836;28;20180;-72
2023/02/19 00:35:37;;;;;;;0.80;0.70;;;;;;;;;;5008335;28;20215;-72
2023/02/19 00:38:02;;;;;;;1.00;0.80;;;;;;;;;;5010479;28;20200;-71
2023/02/19 00:40:28;;;;;;;1.40;1.00;;;;;;;;;;5008376;28;20441;-72
2023/02/19 00:42:53;;;;;;;3.10;1.67;;;;;;;;;;5009712;28;20181;-71
2023/02/19 00:45:18;;;;;;;0.90;0.80;;;;;;;;;;5009725;28;20712;-72
2023/02/19 00:47:44;;;;;;;1.20;1.00;;;;;;;;;;5009852;28;20658;-72
2023/02/19 00:50:09;;;;;;;1.20;0.93;;;;;;;;;;5006475;28;20183;-71
2023/02/19 00:52:34;;;;;;;1.10;1.00;;;;;;;;;;5011443;28;20181;-69
2023/02/19 00:55:00;;;;;;;1.00;0.90;;;;;;;;;;5006170;28;20226;-69
2023/02/19 00:57:25;;;;;;;0.97;0.87;;;;;;;;;;5005734;28;20173;-69
2023/02/19 00:59:50;;;;;;;2.03;1.00;;;;;;;;;;5004774;28;20259;-69
2023/02/19 01:02:16;;;;;;;1.10;0.80;;;;;;;;;;5009150;28;20184;-69
2023/02/19 01:04:41;;;;;;;1.00;0.80;;;;;;;;;;5010169;28;20193;-69
2023/02/19 01:07:06;;;;;;;0.77;0.77;;;;;;;;;;5006626;28;20207;-70
2023/02/19 01:09:31;;;;;;;1.03;0.70;;;;;;;;;;5009420;28;20223;-70
2023/02/19 01:11:57;;;;;;;1.20;1.00;;;;;;;;;;5008890;28;20173;-71
2023/02/19 01:14:22;;;;;;;1.10;0.90;;;;;;;;;;5009327;28;20243;-70
2023/02/19 01:16:47;;;;;;;1.23;0.90;;;;;;;;;;5007099;28;20208;-71
2023/02/19 01:19:12;;;;;;;1.20;1.10;;;;;;;;;;5011168;28;20662;-70
2023/02/19 01:21:38;;;;;;;1.23;0.97;;;;;;;;;;5010014;28;20203;-70
2023/02/19 01:24:03;;;;;;;1.10;1.00;;;;;;;;;;5008120;28;20201;-70
2023/02/19 01:26:30;;;;;;;1.30;1.17;;;;;;;;;;5007095;28;20551;-70
2023/02/19 01:28:55;;;;;;;1.30;1.07;;;;;;;;;;5006237;28;20229;-70
2023/02/19 01:31:22;;;;;;;1.10;0.90;;;;;;;;;;5004596;28;20464;-70
2023/02/19 01:33:51;;;;;;;2.43;1.20;;;;;;;;;;5009389;28;20260;-70
2023/02/19 01:36:17;;;;;;;1.43;1.30;;;;;;;;;;5004748;28;20430;-70
2023/02/19 01:38:43;;;;;;;1.27;1.17;;;;;;;;;;5007299;28;20818;-70
2023/02/19 01:41:10;;;;;;;2.27;1.60;;;;;;;;;;5004976;28;20865;-70
2023/02/19 01:43:53;;;;;;;1.40;1.30;;;;;;;;;;5003391;28;20185;-70
2023/02/19 01:46:19;;;;;;;2.10;1.80;;;;;;;;;;5001422;28;20435;-70
2023/02/19 01:48:44;;;;;;;1.67;1.50;;;;;;;;;;5005596;28;20534;-70
2023/02/19 01:51:13;;;;;;;1.60;1.50;;;;;;;;;;5005121;28;20301;-70
2023/02/19 01:53:43;;;;;;;1.93;1.83;;;;;;;;;;5005264;28;20185;-70
2023/02/19 01:56:08;;;;;;;1.80;1.70;;;;;;;;;;5000066;28;20507;-70
2023/02/19 01:58:34;;;;;;;1.53;1.43;;;;;;;;;;5002968;28;20542;-70
2023/02/19 02:01:01;;;;;;;1.90;1.70;;;;;;;;;;5001817;28;20649;-70
2023/02/19 02:03:26;;;;;;;2.63;1.77;;;;;;;;;;5002334;28;20432;-70
2023/02/19 02:06:00;;;;;;;2.00;1.60;;;;;;;;;;5000927;28;20538;-70
2023/02/19 02:11:10;;;;;;;1.40;1.30;;;;;;;;;;5001668;28;20427;-70
2023/02/19 02:13:35;;;;;;;1.43;1.20;;;;;;;;;;5005078;28;20432;-70
2023/02/19 02:16:19;;;;;;;1.40;1.30;;;;;;;;;;5004166;28;20235;-70
2023/02/19 02:18:52;;;;;;;1.20;1.10;;;;;;;;;;4997802;28;20208;-70
2023/02/19 02:21:35;;;;;;;1.43;1.27;;;;;;;;;;5005016;28;20432;-70
2023/02/19 02:24:00;;;;;;;1.63;1.53;;;;;;;;;;5003370;28;20514;-70
2023/02/19 02:26:25;;;;;;;1.10;1.00;;;;;;;;;;5003168;28;20416;-70
2023/02/19 02:29:09;;;;;;;1.73;1.60;;;;;;;;;;5000162;28;20255;-70
2023/02/19 02:31:39;;;;;;;1.50;1.40;;;;;;;;;;5000618;28;20219;-70
2023/02/19 02:34:11;;;;;;;1.50;1.27;;;;;;;;;;4997867;28;20443;-69
2023/02/19 02:36:38;;;;;;;1.63;1.53;;;;;;;;;;5003335;28;20424;-70
2023/02/19 02:39:06;;;;;;;1.83;1.67;;;;;;;;;;5003707;28;20452;-70
2023/02/19 02:41:32;;;;;;;1.83;1.50;;;;;;;;;;4999331;28;20976;-70
2023/02/19 02:43:57;;;;;;;2.10;1.90;;;;;;;;;;5002861;28;20428;-70
2023/02/19 02:46:25;;;;;;;2.23;2.03;;;;;;;;;;5003709;28;20996;-70
2023/02/19 02:48:54;;;;;;;1.80;1.70;;;;;;;;;;5001610;28;20219;-70
2023/02/19 02:51:51;;;;;;;2.00;1.80;;;;;;;;;;5005024;28;20482;-70
2023/02/19 02:57:08;;;;;;;1.97;1.70;;;;;;;;;;5010156;28;20431;-70
2023/02/19 02:59:35;;;;;;;2.73;1.60;;;;;;;;;;5003950;28;20443;-70
2023/02/19 03:02:17;;;;;;;1.67;1.57;;;;;;;;;;4998908;28;20421;-70
2023/02/19 03:07:48;;;;;;;2.50;1.70;;;;;;;;;;5004269;28;20459;-70
2023/02/19 03:10:16;;;;;;;2.40;1.90;;;;;;;;;;5004609;28;20475;-70
2023/02/19 03:21:00;;;;;;;2.87;2.37;;;;;;;;;;5001509;28;20478;-70
2023/02/19 03:26:02;;;;;;;3.00;2.33;;;;;;;;;;5004670;28;20502;-70
2023/02/19 03:26:15;;;;;;;3.20;2.67;;;;;;;;;;5000165;28;20478;-70
2023/02/19 03:31:26;;;;;;;3.73;2.37;;;;;;;;;;5002518;28;20470;-70
2023/02/19 03:34:04;;;;;;;3.17;2.50;;;;;;;;;;5002153;28;20435;-69
2023/02/19 03:36:33;;;;;;;2.70;2.47;;;;;;;;;;5000738;28;20547;-70
2023/02/19 03:39:01;;;;;;;2.50;2.30;;;;;;;;;;5001200;28;20452;-70
2023/02/19 03:41:35;;;;;;;2.50;2.30;;;;;;;;;;5002310;28;20834;-70
2023/02/19 03:44:04;;;;;;;3.47;2.77;;;;;;;;;;5001945;28;20434;-70
2023/02/19 03:46:41;;;;;;;4.03;2.40;;;;;;;;;;4998917;28;20455;-70
2023/02/19 03:49:15;;;;;;;2.60;2.40;;;;;;;;;;5002058;28;20506;-69
2023/02/19 03:51:49;;;;;;;2.60;2.40;;;;;;;;;;5004320;28;20474;-70
2023/02/19 03:54:20;;;;;;;2.13;1.93;;;;;;;;;;5004594;28;20513;-70
2023/02/19 03:56:50;;;;;;;2.33;1.97;;;;;;;;;;5002901;28;20432;-70
2023/02/19 03:59:17;;;;;;;2.57;1.90;;;;;;;;;;5000402;28;20459;-70
2023/02/19 04:01:57;;;;;;;2.80;2.10;;;;;;;;;;5002904;28;20435;-70
2023/02/19 04:04:25;;;;;;;3.50;1.90;;;;;;;;;;5001280;28;20583;-70
2023/02/19 04:06:53;;;;;;;2.87;1.80;;;;;;;;;;5003000;28;20432;-70
2023/02/19 04:09:20;;;;;;;2.37;1.90;;;;;;;;;;5007352;28;20510;-70
2023/02/19 04:11:45;;;;;;;2.23;1.53;;;;;;;;;;5003857;28;20468;-70
2023/02/19 04:14:19;;;;;;;3.43;2.00;;;;;;;;;;5002841;28;20436;-70
2023/02/19 04:16:46;;;;;;;2.80;1.97;;;;;;;;;;5001585;28;20189;-70
2023/02/19 04:19:14;;;;;;;3.30;2.30;;;;;;;;;;5000603;28;20959;-70
2023/02/19 04:21:40;;;;;;;2.43;1.60;;;;;;;;;;5003271;28;20449;-70
2023/02/19 04:24:08;;;;;;;2.77;2.07;;;;;;;;;;5002476;28;20504;-70
2023/02/19 04:26:34;;;;;;;1.87;1.70;;;;;;;;;;5001395;28;20428;-70
2023/02/19 04:29:00;;;;;;;3.13;1.07;;;;;;;;;;4998451;28;20448;-70
2023/02/19 04:31:26;;;;;;;1.77;1.13;;;;;;;;;;5001574;28;20197;-70
2023/02/19 04:33:51;;;;;;;2.33;1.10;;;;;;;;;;5003490;28;20296;-70
2023/02/19 04:36:16;;;;;;;1.43;0.77;;;;;;;;;;5000227;28;20518;-70
2023/02/19 04:38:42;;;;;;;3.23;0.90;;;;;;;;;;5003781;28;20925;-70
2023/02/19 04:41:07;;;;;;;2.70;0.90;;;;;;;;;;5001764;28;20197;-70
2023/02/19 04:43:33;;;;;;;2.10;0.70;;;;;;;;;;4998702;28;20279;-70
2023/02/19 04:45:59;;;;;;;3.77;0.80;;;;;;;;;;5000997;28;20243;-70
2023/02/19 04:48:24;;;;;;;1.80;0.83;;;;;;;;;;4995513;28;20296;-69
2023/02/19 04:50:50;;;;;;;1.20;0.90;;;;;;;;;;5002328;28;20920;-69
2023/02/19 04:53:15;;;;;;;2.03;0.80;;;;;;;;;;5002616;28;20713;-69
2023/02/19 04:55:40;;;;;;;3.67;0.90;;;;;;;;;;5003997;28;20184;-70
2023/02/19 04:58:05;;;;;;;1.83;0.90;;;;;;;;;;5005874;28;20189;-69
2023/02/19 05:00:32;;;;;;;2.83;0.80;;;;;;;;;;5008298;28;20181;-70
2023/02/19 05:02:58;;;;;;;3.00;1.13;;;;;;;;;;5005749;28;20203;-70
2023/02/19 05:05:23;;;;;;;3.83;0.90;;;;;;;;;;5007037;28;20463;-70
2023/02/19 05:07:48;;;;;;;2.03;0.93;;;;;;;;;;5006839;28;20300;-70
2023/02/19 05:10:13;;;;;;;1.27;0.80;;;;;;;;;;5004438;28;20235;-70
2023/02/19 05:12:39;;;;;;;1.70;0.60;;;;;;;;;;5002997;28;20180;-70
2023/02/19 05:15:04;;;;;;;1.80;0.80;;;;;;;;;;5007415;28;20239;-70
2023/02/19 05:17:31;;;;;;;2.50;1.00;;;;;;;;;;5005186;28;20630;-70
2023/02/19 05:19:56;;;;;;;2.23;0.97;;;;;;;;;;5003631;28;20193;-70
2023/02/19 05:22:22;;;;;;;2.33;1.10;;;;;;;;;;5007958;28;20422;-70
2023/02/19 05:24:47;;;;;;;2.30;0.80;;;;;;;;;;5004420;28;20684;-70
2023/02/19 05:27:12;;;;;;;4.30;1.73;;;;;;;;;;5004695;28;20662;-70
2023/02/19 05:29:37;;;;;;;1.57;0.80;;;;;;;;;;5003367;28;20280;-70
2023/02/19 05:32:03;;;;;;;0.90;0.67;;;;;;;;;;5008091;28;20222;-70
2023/02/19 05:34:28;;;;;;;3.33;1.00;;;;;;;;;;5000615;28;20526;-70
2023/02/19 05:36:53;;;;;;;1.80;1.00;;;;;;;;;;5007931;28;20208;-70
2023/02/19 05:39:19;;;;;;;1.60;0.70;;;;;;;;;;5006854;28;20243;-70
2023/02/19 05:41:44;;;;;;;2.33;0.93;;;;;;;;;;5004345;28;20681;-70
2023/02/19 05:44:09;;;;;;;3.07;0.90;;;;;;;;;;5006171;28;20750;-70
2023/02/19 05:46:35;;;;;;;2.20;0.80;;;;;;;;;;5002663;28;20661;-70
2023/02/19 05:49:00;;;;;;;1.83;0.87;;;;;;;;;;5003652;28;20270;-70
2023/02/19 05:51:26;;;;;;;2.97;1.03;;;;;;;;;;5003092;28;20185;-70
2023/02/19 05:53:51;;;;;;;2.83;0.80;;;;;;;;;;5006303;28;20185;-70
2023/02/19 05:56:23;;;;;;;1.27;0.70;;;;;;;;;;5002943;28;20536;-70
2023/02/19 05:58:48;;;;;;;1.33;0.60;;;;;;;;;;5002995;28;20212;-70
2023/02/19 06:01:17;;;;;;;1.70;0.83;;;;;;;;;;5006205;28;20428;-70
2023/02/19 06:03:43;;;;;;;5.43;2.30;;;;;;;;;;5006080;28;20177;-70
2023/02/19 06:06:12;;;;;;;3.70;2.27;;;;;;;;;;5006074;28;20470;-70
2023/02/19 06:08:37;;;;;;;3.60;2.07;;;;;;;;;;5018839;23;20213;-71
2023/02/19 06:11:03;;;;;;;1.90;1.17;;;;;;;;;;5000380;28;20463;-71
2023/02/19 06:13:28;;;;;;;3.30;1.27;;;;;;;;;;5000359;28;20181;-71
2023/02/19 06:15:53;;;;;;;4.33;1.10;;;;;;;;;;5003556;28;20768;-71
2023/02/19 06:18:19;;;;;;;2.60;0.97;;;;;;;;;;5003661;28;20189;-71
2023/02/19 06:20:44;;;;;;;3.03;0.90;;;;;;;;;;4981450;28;20638;-71
2023/02/19 06:23:09;;;;;;;3.10;1.00;;;;;;;;;;4986370;28;20185;-71
2023/02/19 06:25:34;;;;;;;1.87;0.80;;;;;;;;;;4982090;28;20260;-71
2023/02/19 06:28:00;;;;;;;2.43;0.93;;;;;;;;;;4985673;28;20178;-71
2023/02/19 06:30:25;;;;;;;4.50;1.60;;;;;;;;;;4985530;28;20196;-71
2023/02/19 06:32:51;;;;;;;3.17;1.47;;;;;;;;;;4981007;28;20177;-71
2023/02/19 06:35:16;;;;;;;2.13;1.00;;;;;;;;;;4981125;28;20241;-71
2023/02/19 06:37:45;;;;;;;4.10;1.20;;;;;;;;;;4988780;28;20428;-71
2023/02/19 06:40:10;;;;;;;1.87;0.80;;;;;;;;;;4984816;28;20197;-73
2023/02/19 06:42:35;;;;;;;2.00;0.83;;;;;;;;;;4984533;28;20487;-73
2023/02/19 06:45:00;;;;;;;4.00;1.20;;;;;;;;;;4984805;28;20675;-72
2023/02/19 06:47:29;;;;;;;3.70;1.37;;;;;;;;;;4981199;28;20188;-71
2023/02/19 06:49:54;;;;;;;3.40;1.10;;;;;;;;;;4984664;28;20198;-71
2023/02/19 06:52:19;;;;;;;3.30;1.13;;;;;;;;;;4983944;28;20751;-71
2023/02/19 06:54:44;;;;;;;2.40;0.90;;;;;;;;;;4986149;28;20201;-71
2023/02/19 06:57:11;;;;;;;1.73;0.80;;;;;;;;;;4985239;28;20205;-71
2023/02/19 06:59:36;;;;;;;2.13;0.80;;;;;;;;;;4988299;28;20448;-72
2023/02/19 07:02:01;;;;;;;3.50;0.87;;;;;;;;;;4987087;28;20282;-71
2023/02/19 07:04:27;;;;;;;2.60;1.10;;;;;;;;;;4985447;28;20439;-71
2023/02/19 07:06:52;;;;;;;4.20;1.10;;;;;;;;;;4987146;28;20591;-72
2023/02/19 07:09:17;;;;;;;2.30;0.70;;;;;;;;;;4984442;28;20690;-71
2023/02/19 07:11:42;;;;;;;2.07;1.20;;;;;;;;;;4982994;28;20192;-71
2023/02/19 07:14:12;;;;;;;2.57;0.90;;;;;;;;;;4980805;28;20242;-71
2023/02/19 07:16:38;;;;;;;2.73;1.43;;;;;;;;;;4987911;28;20197;-71
2023/02/19 07:19:03;;;;;;;1.90;1.07;;;;;;;;;;4987669;28;20562;-71
2023/02/19 07:21:28;;;;;;;1.97;0.90;;;;;;;;;;4984070;28;20189;-71
2023/02/19 07:23:54;;;;;;;6.30;2.17;;;;;;;;;;4977854;28;20561;-72
2023/02/19 07:26:19;;;;;;;3.23;2.57;;;;;;;;;;4975718;28;20243;-70
2023/02/19 07:28:46;;;;;;;5.30;2.50;;;;;;;;;;4984218;28;20544;-71
2023/02/19 07:31:11;;;;;;;3.10;1.43;;;;;;;;;;4979491;28;20185;-71
2023/02/19 07:33:37;;;;;;;3.93;1.10;;;;;;;;;;4981866;28;20511;-71
2023/02/19 07:36:02;;;;;;;3.30;1.17;;;;;;;;;;4980253;28;20194;-71
2023/02/19 07:38:27;;;;;;;4.50;1.40;;;;;;;;;;4981608;28;20186;-71
2023/02/19 07:40:53;;;;;;;2.50;1.20;;;;;;;;;;4982145;28;20200;-71
2023/02/19 07:43:19;;;;;;;2.03;0.90;;;;;;;;;;4980257;28;20188;-71
2023/02/19 07:45:44;;;;;;;2.73;1.13;;;;;;;;;;4980521;28;20468;-72
2023/02/19 07:48:09;;;;;;;8.30;1.17;;;;;;;;;;4983513;28;20597;-72
2023/02/19 07:50:35;;;;;;;2.10;1.07;;;;;;;;;;4981556;28;20197;-71
2023/02/19 07:53:00;;;;;;;3.47;1.23;;;;;;;;;;4985805;28;20248;-72
2023/02/19 07:55:25;;;;;;;1.73;0.97;;;;;;;;;;4978725;28;20198;-72
2023/02/19 07:57:51;;;;;;;1.57;1.07;;;;;;;;;;4979410;28;20185;-72
2023/02/19 08:00:17;;;;;;;4.13;1.10;;;;;;;;;;4983830;28;20212;-72
2023/02/19 08:03:01;;;;;;;2.17;1.03;;;;;;;;;;4983054;28;20281;-72
2023/02/19 08:05:27;;;;;;;1.63;1.00;;;;;;;;;;4977189;28;20464;-72
2023/02/19 08:07:53;;;;;;;5.33;1.00;;;;;;;;;;4980947;28;20421;-72
2023/02/19 08:13:18;;;;;;;3.60;1.30;;;;;;;;;;4982940;28;20232;-71
2023/02/19 08:15:44;;;;;;;3.03;0.97;;;;;;;;;;4973741;28;20503;-72
2023/02/19 08:18:09;;;;;;;4.47;1.30;;;;;;;;;;4997203;28;22186;-72
2023/02/19 08:20:35;;;;;;;8.73;1.40;;;;;;;;;;4984441;28;20527;-72
2023/02/19 08:23:00;;;;;;;4.80;1.10;;;;;;;;;;4988578;28;20250;-71
2023/02/19 08:25:26;;;;;;;5.33;1.67;;;;;;;;;;4984286;28;20630;-71
2023/02/19 08:27:51;;;;;;;3.20;0.90;;;;;;;;;;4980708;28;20547;-72
2023/02/19 08:30:16;;;;;;;3.47;1.20;;;;;;;;;;4983534;28;20789;-72
2023/02/19 08:32:42;;;;;;;3.90;1.00;;;;;;;;;;4978169;28;20178;-72
2023/02/19 08:35:07;;;;;;;5.57;1.23;;;;;;;;;;4967022;28;20638;-71
2023/02/19 08:37:32;;;;;;;5.27;1.10;;;;;;;;;;4983521;28;20177;-70
2023/02/19 08:39:57;;;;;;;7.70;1.20;;;;;;;;;;4977844;28;20197;-70
2023/02/19 08:42:23;;;;;;;5.23;1.40;;;;;;;;;;4976334;28;20194;-70
2023/02/19 08:44:48;;;;;;;2.07;1.00;;;;;;;;;;4977824;28;20300;-71
2023/02/19 08:47:13;;;;;;;3.03;1.30;;;;;;;;;;4978327;28;20333;-71
2023/02/19 08:49:39;;;;;;;3.10;1.10;;;;;;;;;;4973944;28;20260;-71
2023/02/19 08:52:04;;;;;;;3.90;1.17;;;;;;;;;;4982853;28;20276;-71
2023/02/19 08:54:29;;;;;;;2.13;0.93;;;;;;;;;;4979904;28;20218;-70
2023/02/19 08:56:55;;;;;;;2.90;1.00;;;;;;;;;;4980502;28;20604;-71
2023/02/19 08:59:20;;;;;;;4.00;1.13;;;;;;;;;;4986250;28;20216;-70
2023/02/19 09:01:46;;;;;;;3.50;0.97;;;;;;;;;;4988070;28;20736;-71
2023/02/19 09:04:12;;;;;;;5.47;1.33;;;;;;;;;;4988070;28;20196;-71
2023/02/19 09:06:37;;;;;;;2.70;0.90;;;;;;;;;;4970188;28;20591;-71
2023/02/19 09:09:03;;;;;;;3.50;1.13;;;;;;;;;;4976941;28;20481;-71
2023/02/19 09:11:28;;;;;;;4.00;1.27;;;;;;;;;;4980501;28;20182;-71
2023/02/19 09:13:54;;;;;;;4.77;1.00;;;;;;;;;;4984805;28;20189;-71
2023/02/19 09:16:20;;;;;;;6.10;1.20;;;;;;;;;;4979023;28;20185;-71
2023/02/19 09:18:45;;;;;;;7.00;1.20;;;;;;;;;;4968803;28;20453;-72
2023/02/19 09:21:10;;;;;;;4.67;0.80;;;;;;;;;;4978330;28;20193;-72
2023/02/19 09:23:36;;;;;;;3.60;1.43;;;;;;;;;;4970965;28;20190;-72
2023/02/19 09:26:07;;;;;;;3.93;1.10;;;;;;;;;;4984104;28;20357;-72
2023/02/19 09:28:32;;;;;;;4.40;1.10;;;;;;;;;;4980750;28;20293;-73
2023/02/19 09:31:02;;;;;;;4.30;1.00;;;;;;;;;;4985213;28;20996;-72
2023/02/19 09:33:27;;;;;;;4.83;1.00;;;;;;;;;;4976495;28;20189;-71
2023/02/19 09:35:53;;;;;;;6.00;1.17;;;;;;;;;;4965060;28;20448;-73
2023/02/19 09:38:18;;;;;;;4.17;1.00;;;;;;;;;;4974067;28;20190;-72
2023/02/19 09:40:43;;;;;;;3.57;1.07;;;;;;;;;;4979123;28;20493;-72
2023/02/19 09:43:13;;;;;;;4.63;1.60;;;;;;;;;;4972062;28;20209;-72
2023/02/19 09:45:39;;;;;;;4.30;1.37;;;;;;;;;;4972908;28;20221;-72
2023/02/19 09:48:05;;;;;;;4.27;1.10;;;;;;;;;;4979230;28;20433;-72
2023/02/19 09:50:36;;;;;;;6.30;1.43;;;;;;;;;;4978996;28;20575;-72
2023/02/19 09:53:03;;;;;;;4.60;1.33;;;;;;;;;;4982485;28;20468;-72
2023/02/19 09:55:35;;;;;;;2.93;0.87;;;;;;;;;;4977277;28;20436;-72
2023/02/19 09:58:19;;;;;;;4.20;1.20;;;;;;;;;;4975562;28;21027;-71
2023/02/19 10:00:46;;;;;;;1.60;0.67;;;;;;;;;;4975940;28;20492;-73
2023/02/19 10:03:16;;;;;;;4.30;0.90;;;;;;;;;;4980762;28;20436;-72
2023/02/19 10:05:41;;;;;;;3.87;1.00;;;;;;;;;;4983703;28;20495;-71
2023/02/19 10:08:11;;;;;;;3.53;1.00;;;;;;;;;;4981081;28;20468;-71
2023/02/19 10:10:36;;;;;;;4.33;1.37;;;;;;;;;;4941699;28;1153589;-72
2023/02/19 10:13:11;;;;;;;2.43;1.13;;;;;;;;;;4980838;28;20189;-72
2023/02/19 10:15:59;;;;;;;2.93;0.80;;;;;;;;;;4976149;28;20185;-72
2023/02/19 10:18:27;;;;;;;7.20;2.87;;;;;;;;;;4957113;28;20461;-71
2023/02/19 10:20:52;;;;;;;5.93;2.67;;;;;;;;;;4974327;28;20442;-72
2023/02/19 10:23:18;;;;;;;4.70;1.73;;;;;;;;;;4981177;28;20731;-71
2023/02/19 10:25:48;;;;;;;2.80;0.90;;;;;;;;;;4986521;28;20539;-71
2023/02/19 10:28:17;;;;;;;4.90;1.20;;;;;;;;;;4981784;28;20269;-71
2023/02/19 10:30:44;;;;;;;5.80;1.00;;;;;;;;;;4984067;28;20448;-72
2023/02/19 10:33:11;;;;;;;6.67;1.30;;;;;;;;;;4984522;28;20435;-71
2023/02/19 10:35:37;;;;;;;6.17;1.13;;;;;;;;;;4984879;28;20524;-71
2023/02/19 10:38:05;;;;;;;4.20;0.90;;;;;;;;;;4983904;28;20452;-71
2023/02/19 10:40:31;;;;;;;5.83;1.27;;;;;;;;;;4986475;28;20445;-72
2023/02/19 10:43:00;;;;;;;8.47;1.00;;;;;;;;;;4987351;28;20445;-72
2023/02/19 10:45:32;;;;;;;3.13;0.97;;;;;;;;;;4986638;28;20283;-71
2023/02/19 10:47:58;;;;;;;4.43;0.90;;;;;;;;;;4980081;28;20969;-71
2023/02/19 10:50:29;;;;;;;4.30;1.37;;;;;;;;;;4984900;28;20477;-72
2023/02/19 10:52:55;;;;;;;5.17;1.17;;;;;;;;;;4983065;28;20178;-71
2023/02/19 10:55:27;;;;;;;3.20;0.80;;;;;;;;;;4987079;28;20529;-71
2023/02/19 10:57:53;;;;;;;3.93;0.90;;;;;;;;;;4979928;28;20531;-71
2023/02/19 11:00:21;;;;;;;6.63;1.07;;;;;;;;;;4991177;28;20528;-71
2023/02/19 11:02:46;;;;;;;3.93;1.33;;;;;;;;;;4989260;28;20948;-71
2023/02/19 11:05:13;;;;;;;5.60;1.37;;;;;;;;;;4984580;28;20465;-71
2023/02/19 11:07:43;;;;;;;2.40;0.80;;;;;;;;;;4986672;28;20174;-71
2023/02/19 11:10:18;;;;;;;4.70;1.00;;;;;;;;;;4986745;28;20481;-71
2023/02/19 11:12:46;;;;;;;3.67;0.83;;;;;;;;;;4986082;28;20605;-71
2023/02/19 11:15:22;;;;;;;4.13;0.93;;;;;;;;;;4986566;28;20424;-71
2023/02/19 11:18:00;;;;;;;8.60;1.10;;;;;;;;;;4992996;28;20929;-71
2023/02/19 11:20:27;;;;;;;4.77;1.07;;;;;;;;;;4983833;28;20460;-71
2023/02/19 11:22:56;;;;;;;3.67;1.00;;;;;;;;;;4976873;28;20467;-71
2023/02/19 11:25:25;;;;;;;6.33;1.60;;;;;;;;;;4979384;28;20942;-71
2023/02/19 11:28:07;;;;;;;6.13;1.83;;;;;;;;;;4993013;28;20812;-72
2023/02/19 11:30:34;;;;;;;4.00;1.07;;;;;;;;;;4997497;28;20445;-71
2023/02/19 11:33:35;;;;;;;4.20;0.90;;;;;;;;;;4985849;28;20904;-71
2023/02/19 11:36:19;;;;;;;5.80;1.50;;;;;;;;;;4962024;28;20949;-71
2023/02/19 11:38:44;;;;;;;4.53;0.87;;;;;;;;;;4984442;28;20456;-71
2023/02/19 11:41:28;;;;;;;3.90;1.10;;;;;;;;;;4999986;28;20429;-71
2023/02/19 11:44:02;;;;;;;3.27;1.10;;;;;;;;;;4979717;28;20738;-71
2023/02/19 11:46:32;;;;;;;2.90;1.10;;;;;;;;;;4975915;28;20474;-71
2023/02/19 11:49:01;;;;;;;2.33;0.80;;;;;;;;;;4982508;28;20488;-71
2023/02/19 11:51:32;;;;;;;5.23;1.10;;;;;;;;;;4975423;28;20512;-71
2023/02/19 11:54:17;;;;;;;2.30;0.90;;;;;;;;;;4983632;28;20460;-71
2023/02/19 11:56:43;;;;;;;7.10;1.17;;;;;;;;;;4978546;28;20428;-71
2023/02/19 11:59:18;;;;;;;6.30;1.87;;;;;;;;;;4997133;28;20835;-71
2023/02/19 12:01:43;;;;;;;6.90;1.53;;;;;;;;;;4986257;28;20439;-71
2023/02/19 12:04:08;;;;;;;3.00;0.90;;;;;;;;;;4982793;28;21056;-72
2023/02/19 12:06:52;;;;;;;3.60;1.20;;;;;;;;;;4986072;28;20185;-71
2023/02/19 12:09:36;;;;;;;2.90;0.80;;;;;;;;;;4987889;28;20296;-71
2023/02/19 12:12:20;;;;;;;4.07;1.20;;;;;;;;;;4983991;28;20421;-71
2023/02/19 12:15:00;;;;;;;3.73;1.10;;;;;;;;;;4975925;28;20422;-70
2023/02/19 12:17:28;;;;;;;3.83;1.10;;;;;;;;;;4985201;28;20467;-71
2023/02/19 12:19:56;;;;;;;7.50;1.17;;;;;;;;;;4983231;28;20453;-71
2023/02/19 12:22:26;;;;;;;6.93;1.30;;;;;;;;;;4984285;28;21057;-70
2023/02/19 12:24:55;;;;;;;3.47;1.00;;;;;;;;;;4974719;28;20542;-70
2023/02/19 12:27:20;;;;;;;4.30;1.17;;;;;;;;;;4973290;28;20436;-70
2023/02/19 12:29:49;;;;;;;3.70;1.13;;;;;;;;;;4979532;28;20868;-71
2023/02/19 12:32:14;;;;;;;4.40;1.00;;;;;;;;;;4978843;28;20174;-70
2023/02/19 12:34:42;;;;;;;5.93;1.00;;;;;;;;;;4983898;28;20436;-71
2023/02/19 12:37:21;;;;;;;4.40;1.20;;;;;;;;;;4981480;28;20672;-71
2023/02/19 12:40:13;;;;;;;4.93;1.33;;;;;;;;;;4986585;28;20441;-70
2023/02/19 12:42:57;;;;;;;3.70;1.10;;;;;;;;;;4980325;28;21160;-71
2023/02/19 12:45:37;;;;;;;9.33;1.47;;;;;;;;;;4984324;28;21266;-71
2023/02/19 12:48:02;;;;;;;5.70;1.20;;;;;;;;;;4979749;28;20936;-70
2023/02/19 12:50:28;;;;;;;4.23;1.40;;;;;;;;;;4984353;28;20440;-70
2023/02/19 12:53:26;;;;;;;5.13;1.20;;;;;;;;;;4983464;28;20261;-71
2023/02/19 12:55:51;;;;;;;4.87;1.23;;;;;;;;;;4965297;28;20190;-71
2023/02/19 12:58:26;;;;;;;5.90;1.23;;;;;;;;;;4983072;28;20799;-70
2023/02/19 13:00:57;;;;;;;6.40;1.60;;;;;;;;;;4984964;28;20523;-70
2023/02/19 13:03:29;;;;;;;4.57;1.30;;;;;;;;;;4975945;28;20527;-71
2023/02/19 13:06:04;;;;;;;4.00;1.37;;;;;;;;;;4970993;28;20507;-70
2023/02/19 13:08:31;;;;;;;3.03;1.17;;;;;;;;;;4978040;28;20413;-70
2023/02/19 13:10:56;;;;;;;6.77;1.33;;;;;;;;;;4978007;28;20824;-71
2023/02/19 13:13:24;;;;;;;4.23;1.20;;;;;;;;;;4984563;28;20430;-71
2023/02/19 13:15:52;;;;;;;6.03;1.17;;;;;;;;;;4985013;28;20241;-70
2023/02/19 13:18:19;;;;;;;5.50;1.10;;;;;;;;;;4982817;28;20470;-70
2023/02/19 13:20:45;;;;;;;4.63;1.23;;;;;;;;;;4978461;28;20464;-70
2023/02/19 13:26:18;;;;;;;3.30;0.97;;;;;;;;;;4983478;28;20538;-70
2023/02/19 13:28:58;;;;;;;5.00;1.40;;;;;;;;;;4975024;28;20860;-70
2023/02/19 13:31:42;;;;;;;3.90;1.40;;;;;;;;;;4984400;28;20503;-70
2023/02/19 13:34:08;;;;;;;3.83;1.10;;;;;;;;;;4981791;28;20440;-70
2023/02/19 13:36:34;;;;;;;2.60;0.83;;;;;;;;;;4977659;28;20433;-71
2023/02/19 13:39:03;;;;;;;4.23;1.00;;;;;;;;;;4982505;28;20605;-71
2023/02/19 13:41:30;;;;;;;3.90;1.30;;;;;;;;;;4980445;28;20520;-71
2023/02/19 13:43:58;;;;;;;6.17;1.47;;;;;;;;;;4999390;28;20433;-71
2023/02/19 13:46:24;;;;;;;2.40;0.97;;;;;;;;;;4974984;28;21087;-71
2023/02/19 13:49:09;;;;;;;3.93;0.93;;;;;;;;;;4984133;28;20555;-71
2023/02/19 13:51:38;;;;;;;3.63;1.20;;;;;;;;;;4984522;28;20693;-70
2023/02/19 13:54:13;;;;;;;3.47;1.20;;;;;;;;;;4977161;28;20507;-72
2023/02/19 13:56:39;;;;;;;3.50;1.03;;;;;;;;;;4981286;28;20436;-72
2023/02/19 13:59:23;;;;;;;4.20;1.10;;;;;;;;;;4982066;28;20464;-72
2023/02/19 14:01:48;;;;;;;4.50;1.47;;;;;;;;;;4985778;28;20269;-72
2023/02/19 14:04:25;;;;;;;4.33;1.20;;;;;;;;;;4988327;28;20524;-72
2023/02/19 14:07:02;;;;;;;3.13;0.90;;;;;;;;;;4983510;28;20643;-72
2023/02/19 14:09:40;;;;;;;3.23;0.80;;;;;;;;;;4983731;28;20492;-72
2023/02/19 14:12:08;;;;;;;4.70;1.10;;;;;;;;;;4989827;28;21034;-71
2023/02/19 14:14:34;;;;;;;5.33;1.30;;;;;;;;;;4976619;28;20435;-70
2023/02/19 14:17:03;;;;;;;4.70;1.30;;;;;;;;;;4978640;28;20437;-71
2023/02/19 14:19:40;;;;;;;5.90;1.43;;;;;;;;;;4981000;28;20205;-71
2023/02/19 14:22:24;;;;;;;3.90;1.10;;;;;;;;;;4983635;28;21000;-70
2023/02/19 14:24:51;;;;;;;2.10;0.90;;;;;;;;;;4983718;28;20465;-70
2023/02/19 14:27:17;;;;;;;4.40;1.03;;;;;;;;;;4985176;28;20437;-71
2023/02/19 14:29:42;;;;;;;3.20;0.87;;;;;;;;;;4983278;28;20461;-70
2023/02/19 14:32:10;;;;;;;5.30;1.40;;;;;;;;;;4987306;28;20182;-71
2023/02/19 14:34:36;;;;;;;4.40;1.00;;;;;;;;;;4983918;28;20182;-71
2023/02/19 14:37:03;;;;;;;4.07;1.60;;;;;;;;;;4985116;28;20983;-71
2023/02/19 14:39:30;;;;;;;2.20;1.00;;;;;;;;;;4984127;28;20202;-71
2023/02/19 14:41:57;;;;;;;3.43;1.23;;;;;;;;;;4997682;28;20944;-70
2023/02/19 14:44:24;;;;;;;3.87;1.20;;;;;;;;;;4983875;28;20429;-70
2023/02/19 14:46:52;;;;;;;4.93;1.20;;;;;;;;;;4983649;28;20488;-70
2023/02/19 14:49:24;;;;;;;3.40;0.90;;;;;;;;;;4977647;28;20531;-70
2023/02/19 14:51:52;;;;;;;3.97;1.23;;;;;;;;;;4981032;28;20441;-70
2023/02/19 14:54:20;;;;;;;10.20;1.20;;;;;;;;;;4983632;28;20433;-70
2023/02/19 14:56:49;;;;;;;6.40;1.40;;;;;;;;;;4968810;28;20499;-70
2023/02/19 14:59:23;;;;;;;4.20;0.90;;;;;;;;;;4977454;28;21061;-70
2023/02/19 15:01:59;;;;;;;5.80;1.40;;;;;;;;;;4978641;28;20508;-70
2023/02/19 15:04:26;;;;;;;6.60;1.30;;;;;;;;;;4969587;28;21042;-70
2023/02/19 15:06:52;;;;;;;7.23;0.80;;;;;;;;;;4987433;28;20464;-71
2023/02/19 15:09:18;;;;;;;6.53;1.43;;;;;;;;;;4983671;28;20570;-70
2023/02/19 15:11:44;;;;;;;4.40;1.07;;;;;;;;;;4985366;28;20463;-70
2023/02/19 15:14:15;;;;;;;6.23;1.10;;;;;;;;;;4984184;28;20441;-70
2023/02/19 15:16:41;;;;;;;5.60;1.43;;;;;;;;;;4987046;28;20181;-70